sensor_id;sensor_type;location;lat;lon;timestamp;pressure;altitude;pressure_sealevel;temperature;humidity
64886;BME280;51514;52.206;5.114;2024-01-30T00:01:12;102647.91;;;8.20;90.77
64886;BME280;51514;52.206;5.114;2024-01-30T00:03:37;102649.81;;;8.18;90.73
64886;BME280;51514;52.206;5.114;2024-01-30T00:06:03;102645.22;;;8.20;90.52
64886;BME280;51514;52.206;5.114;2024-01-30T00:08:28;102646.28;;;8.17;90.42
64886;BME280;51514;52.206;5.114;2024-01-30T00:10:54;102638.41;;;8.14;90.39
64886;BME280;51514;52.206;5.114;2024-01-30T00:13:19;102633.34;;;8.10;90.86
64886;BME280;51514;52.206;5.114;2024-01-30T00:15:45;102634.84;;;8.14;90.50
64886;BME280;51514;52.206;5.114;2024-01-30T00:18:10;102638.63;;;8.11;90.94
64886;BME280;51514;52.206;5.114;2024-01-30T00:20:36;102635.72;;;8.14;90.19
64886;BME280;51514;52.206;5.114;2024-01-30T00:23:01;102642.06;;;8.13;90.89
64886;BME280;51514;52.206;5.114;2024-01-30T00:25:26;102639.38;;;8.13;90.46
64886;BME280;51514;52.206;5.114;2024-01-30T00:27:52;102638.50;;;8.13;90.39
64886;BME280;51514;52.206;5.114;2024-01-30T00:30:17;102646.47;;;8.14;90.28
64886;BME280;51514;52.206;5.114;2024-01-30T00:32:43;102642.16;;;8.12;90.68
64886;BME280;51514;52.206;5.114;2024-01-30T00:35:08;102637.53;;;8.14;90.60
64886;BME280;51514;52.206;5.114;2024-01-30T00:37:35;102623.47;;;8.10;90.81
64886;BME280;51514;52.206;5.114;2024-01-30T00:40:01;102625.19;;;8.11;90.52
64886;BME280;51514;52.206;5.114;2024-01-30T00:42:26;102629.28;;;8.17;90.69
64886;BME280;51514;52.206;5.114;2024-01-30T00:44:51;102630.16;;;8.17;90.72
64886;BME280;51514;52.206;5.114;2024-01-30T00:47:17;102628.34;;;8.18;91.79
64886;BME280;51514;52.206;5.114;2024-01-30T00:49:42;102624.59;;;8.20;91.93
64886;BME280;51514;52.206;5.114;2024-01-30T00:52:07;102628.78;;;8.24;91.67
64886;BME280;51514;52.206;5.114;2024-01-30T00:54:33;102628.88;;;8.23;93.04
64886;BME280;51514;52.206;5.114;2024-01-30T00:56:58;102628.69;;;8.26;93.78
64886;BME280;51514;52.206;5.114;2024-01-30T00:59:24;102622.25;;;8.28;93.14
64886;BME280;51514;52.206;5.114;2024-01-30T01:01:50;102626.56;;;8.31;92.97
64886;BME280;51514;52.206;5.114;2024-01-30T01:04:16;102628.34;;;8.32;93.50
64886;BME280;51514;52.206;5.114;2024-01-30T01:06:41;102623.59;;;8.35;93.66
64886;BME280;51514;52.206;5.114;2024-01-30T01:09:10;102610.84;;;8.39;93.43
64886;BME280;51514;52.206;5.114;2024-01-30T01:11:35;102601.47;;;8.45;93.02
64886;BME280;51514;52.206;5.114;2024-01-30T01:14:01;102596.78;;;8.48;93.54
64886;BME280;51514;52.206;5.114;2024-01-30T01:16:26;102592.25;;;8.49;93.74
64886;BME280;51514;52.206;5.114;2024-01-30T01:18:52;102614.94;;;8.45;94.80
64886;BME280;51514;52.206;5.114;2024-01-30T01:21:17;102613.78;;;8.49;94.00
64886;BME280;51514;52.206;5.114;2024-01-30T01:23:42;102612.91;;;8.48;93.78
64886;BME280;51514;52.206;5.114;2024-01-30T01:26:08;102611.84;;;8.51;93.20
64886;BME280;51514;52.206;5.114;2024-01-30T01:28:35;102621.06;;;8.47;93.92
64886;BME280;51514;52.206;5.114;2024-01-30T01:31:00;102622.91;;;8.46;93.47
64886;BME280;51514;52.206;5.114;2024-01-30T01:33:30;102618.03;;;8.38;94.05
64886;BME280;51514;52.206;5.114;2024-01-30T01:35:57;102621.28;;;8.44;93.16
64886;BME280;51514;52.206;5.114;2024-01-30T01:38:22;102612.25;;;8.45;93.20
64886;BME280;51514;52.206;5.114;2024-01-30T01:40:47;102612.03;;;8.48;93.47
64886;BME280;51514;52.206;5.114;2024-01-30T01:43:13;102612.03;;;8.48;93.14
64886;BME280;51514;52.206;5.114;2024-01-30T01:45:38;102614.63;;;8.49;92.25
64886;BME280;51514;52.206;5.114;2024-01-30T01:48:04;102606.47;;;8.51;91.96
64886;BME280;51514;52.206;5.114;2024-01-30T01:50:29;102601.09;;;8.51;91.75
64886;BME280;51514;52.206;5.114;2024-01-30T01:52:55;102599.47;;;8.48;91.35
64886;BME280;51514;52.206;5.114;2024-01-30T01:55:22;102606.88;;;8.45;90.73
64886;BME280;51514;52.206;5.114;2024-01-30T01:57:49;102605.38;;;8.40;90.99
64886;BME280;51514;52.206;5.114;2024-01-30T02:00:15;102595.66;;;8.38;90.91
64886;BME280;51514;52.206;5.114;2024-01-30T02:02:41;102609.22;;;8.36;90.62
64886;BME280;51514;52.206;5.114;2024-01-30T02:05:08;102607.47;;;8.35;90.50
64886;BME280;51514;52.206;5.114;2024-01-30T02:07:34;102609.41;;;8.33;89.75
64886;BME280;51514;52.206;5.114;2024-01-30T02:09:59;102603.34;;;8.30;89.39
64886;BME280;51514;52.206;5.114;2024-01-30T02:12:25;102586.56;;;8.26;89.97
64886;BME280;51514;52.206;5.114;2024-01-30T02:14:50;102587.50;;;8.25;90.68
64886;BME280;51514;52.206;5.114;2024-01-30T02:17:16;102607.09;;;8.27;91.46
64886;BME280;51514;52.206;5.114;2024-01-30T02:19:41;102607.38;;;8.23;92.82
64886;BME280;51514;52.206;5.114;2024-01-30T02:22:08;102603.63;;;8.25;91.87
64886;BME280;51514;52.206;5.114;2024-01-30T02:24:34;102596.25;;;8.29;91.95
64886;BME280;51514;52.206;5.114;2024-01-30T02:26:59;102604.88;;;8.34;92.22
64886;BME280;51514;52.206;5.114;2024-01-30T02:29:24;102620.91;;;8.35;92.72
64886;BME280;51514;52.206;5.114;2024-01-30T02:31:50;102608.34;;;8.36;92.28
64886;BME280;51514;52.206;5.114;2024-01-30T02:34:15;102599.31;;;8.37;92.62
64886;BME280;51514;52.206;5.114;2024-01-30T02:36:43;102581.06;;;8.42;92.51
64886;BME280;51514;52.206;5.114;2024-01-30T02:39:09;102572.69;;;8.47;92.69
64886;BME280;51514;52.206;5.114;2024-01-30T02:41:35;102570.75;;;8.49;93.12
64886;BME280;51514;52.206;5.114;2024-01-30T02:44:01;102584.09;;;8.50;94.28
64886;BME280;51514;52.206;5.114;2024-01-30T02:46:26;102578.72;;;8.50;94.48
64886;BME280;51514;52.206;5.114;2024-01-30T02:48:52;102571.31;;;8.54;93.57
64886;BME280;51514;52.206;5.114;2024-01-30T02:51:17;102578.31;;;8.56;93.42
64886;BME280;51514;52.206;5.114;2024-01-30T02:53:42;102577.66;;;8.53;94.10
64886;BME280;51514;52.206;5.114;2024-01-30T02:56:08;102574.88;;;8.54;93.98
64886;BME280;51514;52.206;5.114;2024-01-30T02:58:35;102565.72;;;8.57;93.38
64886;BME280;51514;52.206;5.114;2024-01-30T03:01:01;102569.59;;;8.53;93.61
64886;BME280;51514;52.206;5.114;2024-01-30T03:03:27;102566.91;;;8.53;93.37
64886;BME280;51514;52.206;5.114;2024-01-30T03:05:52;102575.19;;;8.50;93.48
64886;BME280;51514;52.206;5.114;2024-01-30T03:08:17;102563.66;;;8.48;92.91
64886;BME280;51514;52.206;5.114;2024-01-30T03:10:43;102574.41;;;8.48;93.42
64886;BME280;51514;52.206;5.114;2024-01-30T03:13:08;102565.69;;;8.44;93.35
64886;BME280;51514;52.206;5.114;2024-01-30T03:15:33;102574.59;;;8.45;92.45
64886;BME280;51514;52.206;5.114;2024-01-30T03:17:59;102556.66;;;8.45;92.83
64886;BME280;51514;52.206;5.114;2024-01-30T03:20:24;102553.78;;;8.48;92.87
64886;BME280;51514;52.206;5.114;2024-01-30T03:22:49;102550.03;;;8.51;93.40
64886;BME280;51514;52.206;5.114;2024-01-30T03:25:15;102547.13;;;8.54;92.84
64886;BME280;51514;52.206;5.114;2024-01-30T03:27:40;102547.00;;;8.55;92.67
64886;BME280;51514;52.206;5.114;2024-01-30T03:30:06;102538.94;;;8.55;92.85
64886;BME280;51514;52.206;5.114;2024-01-30T03:32:31;102533.25;;;8.60;92.78
64886;BME280;51514;52.206;5.114;2024-01-30T03:34:57;102528.84;;;8.59;93.11
64886;BME280;51514;52.206;5.114;2024-01-30T03:37:23;102534.97;;;8.61;92.84
64886;BME280;51514;52.206;5.114;2024-01-30T03:39:48;102526.81;;;8.62;92.92
64886;BME280;51514;52.206;5.114;2024-01-30T03:42:14;102522.41;;;8.61;93.49
64886;BME280;51514;52.206;5.114;2024-01-30T03:44:39;102529.59;;;8.61;93.86
64886;BME280;51514;52.206;5.114;2024-01-30T03:47:05;102528.66;;;8.62;93.26
64886;BME280;51514;52.206;5.114;2024-01-30T03:49:30;102534.41;;;8.56;94.27
64886;BME280;51514;52.206;5.114;2024-01-30T03:51:55;102533.16;;;8.61;93.96
64886;BME280;51514;52.206;5.114;2024-01-30T03:54:21;102540.13;;;8.51;94.21
64886;BME280;51514;52.206;5.114;2024-01-30T03:56:46;102537.47;;;8.64;93.55
64886;BME280;51514;52.206;5.114;2024-01-30T03:59:12;102533.81;;;8.65;93.36
64886;BME280;51514;52.206;5.114;2024-01-30T04:01:37;102541.75;;;8.66;93.57
64886;BME280;51514;52.206;5.114;2024-01-30T04:04:02;102544.34;;;8.68;93.34
64886;BME280;51514;52.206;5.114;2024-01-30T04:06:28;102544.56;;;8.65;93.49
64886;BME280;51514;52.206;5.114;2024-01-30T04:08:53;102539.19;;;8.65;93.58
64886;BME280;51514;52.206;5.114;2024-01-30T04:11:19;102544.13;;;8.71;93.32
64886;BME280;51514;52.206;5.114;2024-01-30T04:13:45;102537.81;;;8.72;93.17
64886;BME280;51514;52.206;5.114;2024-01-30T04:16:22;102535.22;;;8.70;93.91
64886;BME280;51514;52.206;5.114;2024-01-30T04:18:47;102523.91;;;8.78;93.19
64886;BME280;51514;52.206;5.114;2024-01-30T04:21:13;102527.25;;;8.82;93.31
64886;BME280;51514;52.206;5.114;2024-01-30T04:23:40;102529.84;;;8.83;93.26
64886;BME280;51514;52.206;5.114;2024-01-30T04:26:05;102529.00;;;8.83;93.31
64886;BME280;51514;52.206;5.114;2024-01-30T04:28:30;102516.72;;;8.91;92.77
64886;BME280;51514;52.206;5.114;2024-01-30T04:30:56;102522.00;;;8.93;93.31
64886;BME280;51514;52.206;5.114;2024-01-30T04:33:21;102522.88;;;8.93;93.41
64886;BME280;51514;52.206;5.114;2024-01-30T04:35:47;102515.56;;;8.95;92.51
64886;BME280;51514;52.206;5.114;2024-01-30T04:38:12;102506.19;;;9.01;92.35
64886;BME280;51514;52.206;5.114;2024-01-30T04:40:38;102506.38;;;8.98;92.69
64886;BME280;51514;52.206;5.114;2024-01-30T04:43:04;102502.63;;;9.00;92.60
64886;BME280;51514;52.206;5.114;2024-01-30T04:45:29;102507.13;;;9.00;92.99
64886;BME280;51514;52.206;5.114;2024-01-30T04:47:54;102503.47;;;9.01;92.59
64886;BME280;51514;52.206;5.114;2024-01-30T04:50:20;102517.03;;;8.99;92.42
64886;BME280;51514;52.206;5.114;2024-01-30T04:52:45;102508.97;;;8.99;92.44
64886;BME280;51514;52.206;5.114;2024-01-30T04:55:10;102505.41;;;8.99;92.51
64886;BME280;51514;52.206;5.114;2024-01-30T04:57:36;102503.47;;;9.01;92.05
64886;BME280;51514;52.206;5.114;2024-01-30T05:00:02;102505.41;;;8.99;92.81
64886;BME280;51514;52.206;5.114;2024-01-30T05:02:28;102513.38;;;9.00;93.18
64886;BME280;51514;52.206;5.114;2024-01-30T05:04:53;102498.56;;;9.07;92.93
64886;BME280;51514;52.206;5.114;2024-01-30T05:07:19;102510.81;;;9.11;92.40
64886;BME280;51514;52.206;5.114;2024-01-30T05:09:44;102500.78;;;9.13;92.52
64886;BME280;51514;52.206;5.114;2024-01-30T05:12:10;102507.78;;;9.16;92.71
64886;BME280;51514;52.206;5.114;2024-01-30T05:14:35;102500.69;;;9.15;92.49
64886;BME280;51514;52.206;5.114;2024-01-30T05:17:00;102494.22;;;9.18;92.75
64886;BME280;51514;52.206;5.114;2024-01-30T05:19:28;102496.56;;;9.22;92.44
64886;BME280;51514;52.206;5.114;2024-01-30T05:21:53;102500.88;;;9.25;92.70
64886;BME280;51514;52.206;5.114;2024-01-30T05:24:19;102496.25;;;9.27;92.52
64886;BME280;51514;52.206;5.114;2024-01-30T05:26:44;102503.25;;;9.29;92.25
64886;BME280;51514;52.206;5.114;2024-01-30T05:29:09;102499.56;;;9.30;92.32
64886;BME280;51514;52.206;5.114;2024-01-30T05:31:35;102502.06;;;9.33;92.33
64886;BME280;51514;52.206;5.114;2024-01-30T05:34:00;102497.44;;;9.35;91.88
64886;BME280;51514;52.206;5.114;2024-01-30T05:36:26;102508.09;;;9.37;92.25
64886;BME280;51514;52.206;5.114;2024-01-30T05:38:51;102493.66;;;9.38;92.24
64886;BME280;51514;52.206;5.114;2024-01-30T05:41:16;102498.06;;;9.39;92.09
64886;BME280;51514;52.206;5.114;2024-01-30T05:43:42;102497.09;;;9.40;92.50
64886;BME280;51514;52.206;5.114;2024-01-30T05:46:07;102504.94;;;9.43;92.70
64886;BME280;51514;52.206;5.114;2024-01-30T05:48:32;102508.38;;;9.45;92.72
64886;BME280;51514;52.206;5.114;2024-01-30T05:51:00;102503.97;;;9.44;92.81
64886;BME280;51514;52.206;5.114;2024-01-30T05:53:25;102502.69;;;9.49;92.52
64886;BME280;51514;52.206;5.114;2024-01-30T05:55:51;102501.06;;;9.47;93.44
64886;BME280;51514;52.206;5.114;2024-01-30T05:58:16;102510.66;;;9.51;92.86
64886;BME280;51514;52.206;5.114;2024-01-30T06:00:41;102506.00;;;9.53;92.54
64886;BME280;51514;52.206;5.114;2024-01-30T06:03:07;102500.41;;;9.56;92.81
64886;BME280;51514;52.206;5.114;2024-01-30T06:05:32;102504.72;;;9.59;92.31
64886;BME280;51514;52.206;5.114;2024-01-30T06:07:58;102509.13;;;9.60;92.53
64886;BME280;51514;52.206;5.114;2024-01-30T06:10:23;102509.97;;;9.60;92.96
64886;BME280;51514;52.206;5.114;2024-01-30T06:12:48;102506.84;;;9.66;91.87
64886;BME280;51514;52.206;5.114;2024-01-30T06:15:14;102504.25;;;9.65;92.48
64886;BME280;51514;52.206;5.114;2024-01-30T06:17:39;102507.38;;;9.71;91.33
64886;BME280;51514;52.206;5.114;2024-01-30T06:20:05;102509.31;;;9.69;91.92
64886;BME280;51514;52.206;5.114;2024-01-30T06:22:31;102514.69;;;9.69;92.02
64886;BME280;51514;52.206;5.114;2024-01-30T06:24:56;102511.78;;;9.72;92.00
64886;BME280;51514;52.206;5.114;2024-01-30T06:27:22;102508.22;;;9.72;91.92
64886;BME280;51514;52.206;5.114;2024-01-30T06:29:47;102507.13;;;9.74;91.66
64886;BME280;51514;52.206;5.114;2024-01-30T06:32:12;102508.13;;;9.73;92.21
64886;BME280;51514;52.206;5.114;2024-01-30T06:34:38;102505.44;;;9.73;92.24
64886;BME280;51514;52.206;5.114;2024-01-30T06:37:05;102511.53;;;9.75;92.20
64886;BME280;51514;52.206;5.114;2024-01-30T06:39:30;102519.50;;;9.77;92.16
64886;BME280;51514;52.206;5.114;2024-01-30T06:41:56;102517.16;;;9.72;92.87
64886;BME280;51514;52.206;5.114;2024-01-30T06:44:21;102521.13;;;9.79;91.81
64886;BME280;51514;52.206;5.114;2024-01-30T06:46:46;102514.78;;;9.80;92.66
64886;BME280;51514;52.206;5.114;2024-01-30T06:49:12;102525.31;;;9.83;93.52
64886;BME280;51514;52.206;5.114;2024-01-30T06:51:37;102522.16;;;9.89;94.40
64886;BME280;51514;52.206;5.114;2024-01-30T06:54:03;102520.72;;;9.97;94.67
64886;BME280;51514;52.206;5.114;2024-01-30T06:56:29;102515.50;;;10.06;95.09
64886;BME280;51514;52.206;5.114;2024-01-30T06:58:55;102509.28;;;10.06;95.11
64886;BME280;51514;52.206;5.114;2024-01-30T07:01:20;102517.00;;;10.10;94.77
64886;BME280;51514;52.206;5.114;2024-01-30T07:03:46;102517.97;;;10.22;94.87
64886;BME280;51514;52.206;5.114;2024-01-30T07:06:11;102522.88;;;10.28;94.23
64886;BME280;51514;52.206;5.114;2024-01-30T07:08:37;102519.50;;;10.37;93.62
64886;BME280;51514;52.206;5.114;2024-01-30T07:11:07;102520.88;;;10.43;93.46
64886;BME280;51514;52.206;5.114;2024-01-30T07:13:33;102512.44;;;10.47;93.07
64886;BME280;51514;52.206;5.114;2024-01-30T07:15:59;102516.09;;;10.46;93.39
64886;BME280;51514;52.206;5.114;2024-01-30T07:18:25;102525.66;;;10.50;93.00
64886;BME280;51514;52.206;5.114;2024-01-30T07:20:50;102519.81;;;10.56;92.66
64886;BME280;51514;52.206;5.114;2024-01-30T07:23:16;102518.72;;;10.59;92.43
64886;BME280;51514;52.206;5.114;2024-01-30T07:25:45;102536.59;;;10.60;92.22
64886;BME280;51514;52.206;5.114;2024-01-30T07:28:11;102532.47;;;10.67;92.08
64886;BME280;51514;52.206;5.114;2024-01-30T07:30:42;102533.47;;;10.66;92.20
64886;BME280;51514;52.206;5.114;2024-01-30T07:33:08;102532.38;;;10.69;92.54
64886;BME280;51514;52.206;5.114;2024-01-30T07:35:34;102538.50;;;10.71;92.31
64886;BME280;51514;52.206;5.114;2024-01-30T07:37:59;102541.06;;;10.72;92.43
64886;BME280;51514;52.206;5.114;2024-01-30T07:40:25;102550.44;;;10.79;92.36
64886;BME280;51514;52.206;5.114;2024-01-30T07:42:50;102556.56;;;10.81;92.58
64886;BME280;51514;52.206;5.114;2024-01-30T07:45:16;102549.19;;;10.83;92.47
64886;BME280;51514;52.206;5.114;2024-01-30T07:47:41;102547.13;;;10.87;92.20
64886;BME280;51514;52.206;5.114;2024-01-30T07:50:08;102546.16;;;10.88;92.36
64886;BME280;51514;52.206;5.114;2024-01-30T07:52:34;102542.97;;;10.94;92.26
64886;BME280;51514;52.206;5.114;2024-01-30T07:54:59;102551.44;;;11.01;91.81
64886;BME280;51514;52.206;5.114;2024-01-30T07:57:25;102545.94;;;11.02;91.62
64886;BME280;51514;52.206;5.114;2024-01-30T07:59:50;102558.09;;;11.08;91.79
64886;BME280;51514;52.206;5.114;2024-01-30T08:02:15;102556.25;;;11.08;92.51
64886;BME280;51514;52.206;5.114;2024-01-30T08:04:41;102552.81;;;11.17;91.99
64886;BME280;51514;52.206;5.114;2024-01-30T08:07:07;102552.59;;;11.20;92.57
64886;BME280;51514;52.206;5.114;2024-01-30T08:09:32;102544.72;;;11.28;92.01
64886;BME280;51514;52.206;5.114;2024-01-30T08:11:57;102550.88;;;11.30;91.69
64886;BME280;51514;52.206;5.114;2024-01-30T08:14:23;102555.06;;;11.34;91.64
64886;BME280;51514;52.206;5.114;2024-01-30T08:16:48;102554.56;;;11.41;91.09
64886;BME280;51514;52.206;5.114;2024-01-30T08:19:16;102553.06;;;11.37;90.48
64886;BME280;51514;52.206;5.114;2024-01-30T08:21:42;102565.25;;;11.42;90.69
64886;BME280;51514;52.206;5.114;2024-01-30T08:24:07;102556.91;;;11.45;91.33
64886;BME280;51514;52.206;5.114;2024-01-30T08:26:33;102558.13;;;11.52;91.03
64886;BME280;51514;52.206;5.114;2024-01-30T08:28:59;102555.06;;;11.57;90.81
64886;BME280;51514;52.206;5.114;2024-01-30T08:31:24;102557.78;;;11.57;90.94
64886;BME280;51514;52.206;5.114;2024-01-30T08:33:49;102563.63;;;11.62;90.55
64886;BME280;51514;52.206;5.114;2024-01-30T08:36:16;102565.13;;;11.66;90.21
64886;BME280;51514;52.206;5.114;2024-01-30T08:38:42;102563.16;;;11.68;90.21
64886;BME280;51514;52.206;5.114;2024-01-30T08:41:08;102568.41;;;11.69;90.13
64886;BME280;51514;52.206;5.114;2024-01-30T08:43:33;102560.81;;;11.75;90.12
64886;BME280;51514;52.206;5.114;2024-01-30T08:46:02;102569.19;;;11.83;89.89
64886;BME280;51514;52.206;5.114;2024-01-30T08:48:28;102567.22;;;11.85;89.88
64886;BME280;51514;52.206;5.114;2024-01-30T08:50:54;102568.53;;;11.90;89.50
64886;BME280;51514;52.206;5.114;2024-01-30T08:53:19;102566.59;;;11.92;89.26
64886;BME280;51514;52.206;5.114;2024-01-30T08:55:45;102569.56;;;11.78;88.98
64886;BME280;51514;52.206;5.114;2024-01-30T08:58:11;102565.72;;;11.92;89.22
64886;BME280;51514;52.206;5.114;2024-01-30T09:00:36;102569.41;;;11.91;89.58
64886;BME280;51514;52.206;5.114;2024-01-30T09:03:03;102567.84;;;11.88;89.64
64886;BME280;51514;52.206;5.114;2024-01-30T09:05:28;102573.59;;;11.84;89.64
64886;BME280;51514;52.206;5.114;2024-01-30T09:07:54;102576.56;;;11.81;89.80
64886;BME280;51514;52.206;5.114;2024-01-30T09:10:19;102578.66;;;11.88;89.70
64886;BME280;51514;52.206;5.114;2024-01-30T09:12:45;102570.53;;;11.88;89.48
64886;BME280;51514;52.206;5.114;2024-01-30T09:15:11;102578.16;;;11.83;90.64
64886;BME280;51514;52.206;5.114;2024-01-30T09:17:36;102582.22;;;11.89;90.27
64886;BME280;51514;52.206;5.114;2024-01-30T09:20:02;102590.91;;;11.81;90.63
64886;BME280;51514;52.206;5.114;2024-01-30T09:22:27;102585.91;;;11.88;90.01
64886;BME280;51514;52.206;5.114;2024-01-30T09:24:52;102583.44;;;11.85;90.25
64886;BME280;51514;52.206;5.114;2024-01-30T09:27:19;102584.06;;;11.88;89.95
64886;BME280;51514;52.206;5.114;2024-01-30T09:29:45;102594.13;;;11.86;90.82
64886;BME280;51514;52.206;5.114;2024-01-30T09:32:14;102585.41;;;11.83;90.66
64886;BME280;51514;52.206;5.114;2024-01-30T09:34:42;102588.34;;;11.91;90.87
64886;BME280;51514;52.206;5.114;2024-01-30T09:37:08;102589.06;;;11.93;90.92
64886;BME280;51514;52.206;5.114;2024-01-30T09:39:33;102587.97;;;11.95;90.41
64886;BME280;51514;52.206;5.114;2024-01-30T09:42:12;102586.00;;;11.97;90.56
64886;BME280;51514;52.206;5.114;2024-01-30T09:44:43;102593.47;;;12.05;89.86
64886;BME280;51514;52.206;5.114;2024-01-30T09:47:08;102600.50;;;12.07;89.83
64886;BME280;51514;52.206;5.114;2024-01-30T09:49:35;102597.53;;;12.11;89.55
64886;BME280;51514;52.206;5.114;2024-01-30T09:52:02;102602.31;;;12.18;89.47
64886;BME280;51514;52.206;5.114;2024-01-30T09:54:30;102595.78;;;12.21;89.36
64886;BME280;51514;52.206;5.114;2024-01-30T09:56:56;102600.81;;;12.25;89.15
64886;BME280;51514;52.206;5.114;2024-01-30T09:59:21;102604.13;;;12.29;88.78
64886;BME280;51514;52.206;5.114;2024-01-30T10:01:47;102613.97;;;12.30;88.77
64886;BME280;51514;52.206;5.114;2024-01-30T10:04:12;102610.94;;;12.44;88.38
64886;BME280;51514;52.206;5.114;2024-01-30T10:06:38;102614.69;;;12.43;87.78
64886;BME280;51514;52.206;5.114;2024-01-30T10:09:04;102613.53;;;12.46;86.87
64886;BME280;51514;52.206;5.114;2024-01-30T10:11:30;102611.66;;;12.57;86.63
64886;BME280;51514;52.206;5.114;2024-01-30T10:13:55;102604.88;;;12.63;85.72
64886;BME280;51514;52.206;5.114;2024-01-30T10:16:20;102620.63;;;12.58;86.04
64886;BME280;51514;52.206;5.114;2024-01-30T10:18:46;102631.34;;;12.59;85.62
64886;BME280;51514;52.206;5.114;2024-01-30T10:21:12;102637.94;;;12.66;85.20
64886;BME280;51514;52.206;5.114;2024-01-30T10:23:38;102623.41;;;12.67;84.96
64886;BME280;51514;52.206;5.114;2024-01-30T10:26:07;102614.16;;;12.49;84.31
64886;BME280;51514;52.206;5.114;2024-01-30T10:28:33;102615.25;;;12.47;84.57
64886;BME280;51514;52.206;5.114;2024-01-30T10:30:59;102625.63;;;12.41;84.25
64886;BME280;51514;52.206;5.114;2024-01-30T10:33:28;102626.22;;;12.34;84.46
64886;BME280;51514;52.206;5.114;2024-01-30T10:36:00;102632.41;;;12.25;84.34
64886;BME280;51514;52.206;5.114;2024-01-30T10:38:28;102628.22;;;12.32;84.28
64886;BME280;51514;52.206;5.114;2024-01-30T10:40:57;102634.66;;;12.20;84.32
64886;BME280;51514;52.206;5.114;2024-01-30T10:43:24;102630.22;;;12.19;84.08
64886;BME280;51514;52.206;5.114;2024-01-30T10:45:57;102647.19;;;12.21;83.91
64886;BME280;51514;52.206;5.114;2024-01-30T10:48:29;102642.00;;;12.18;84.28
64886;BME280;51514;52.206;5.114;2024-01-30T10:50:55;102650.00;;;12.19;83.95
64886;BME280;51514;52.206;5.114;2024-01-30T10:53:22;102651.00;;;12.18;83.98
64886;BME280;51514;52.206;5.114;2024-01-30T10:55:51;102656.00;;;12.23;83.66
64886;BME280;51514;52.206;5.114;2024-01-30T10:58:17;102659.22;;;12.28;83.18
64886;BME280;51514;52.206;5.114;2024-01-30T11:00:44;102666.59;;;12.15;81.92
64886;BME280;51514;52.206;5.114;2024-01-30T11:03:11;102668.56;;;12.13;81.37
64886;BME280;51514;52.206;5.114;2024-01-30T11:05:40;102675.22;;;11.86;81.04
64886;BME280;51514;52.206;5.114;2024-01-30T11:08:22;102668.56;;;12.01;80.91
64886;BME280;51514;52.206;5.114;2024-01-30T11:10:49;102676.66;;;11.90;80.88
64886;BME280;51514;52.206;5.114;2024-01-30T11:13:15;102655.66;;;11.94;80.54
64886;BME280;51514;52.206;5.114;2024-01-30T11:15:40;102660.84;;;11.97;80.21
64886;BME280;51514;52.206;5.114;2024-01-30T11:18:06;102663.16;;;11.90;80.01
64886;BME280;51514;52.206;5.114;2024-01-30T11:20:32;102669.00;;;11.62;80.20
64886;BME280;51514;52.206;5.114;2024-01-30T11:22:58;102662.72;;;11.50;80.07
64886;BME280;51514;52.206;5.114;2024-01-30T11:25:25;102671.72;;;11.62;79.78
64886;BME280;51514;52.206;5.114;2024-01-30T11:27:52;102679.44;;;11.44;80.10
64886;BME280;51514;52.206;5.114;2024-01-30T11:30:25;102674.50;;;11.38;80.37
64886;BME280;51514;52.206;5.114;2024-01-30T11:33:06;102680.69;;;11.16;80.82
64886;BME280;51514;52.206;5.114;2024-01-30T11:37:59;102681.69;;;11.26;80.69
64886;BME280;51514;52.206;5.114;2024-01-30T11:40:30;102673.34;;;11.18;80.78
64886;BME280;51514;52.206;5.114;2024-01-30T11:42:56;102683.06;;;11.21;81.16
64886;BME280;51514;52.206;5.114;2024-01-30T11:45:23;102665.34;;;11.17;81.81
64886;BME280;51514;52.206;5.114;2024-01-30T11:47:48;102675.53;;;11.13;81.74
64886;BME280;51514;52.206;5.114;2024-01-30T11:50:14;102690.94;;;11.00;82.10
64886;BME280;51514;52.206;5.114;2024-01-30T11:52:40;102699.00;;;10.89;82.89
64886;BME280;51514;52.206;5.114;2024-01-30T11:55:07;102701.09;;;10.96;83.00
64886;BME280;51514;52.206;5.114;2024-01-30T11:57:33;102701.97;;;10.97;83.16
64886;BME280;51514;52.206;5.114;2024-01-30T12:00:00;102696.69;;;10.72;83.19
64886;BME280;51514;52.206;5.114;2024-01-30T12:02:26;102705.75;;;10.94;82.83
64886;BME280;51514;52.206;5.114;2024-01-30T12:04:52;102689.63;;;10.82;82.13
64886;BME280;51514;52.206;5.114;2024-01-30T12:07:17;102691.06;;;10.75;81.78
64886;BME280;51514;52.206;5.114;2024-01-30T12:09:52;102698.88;;;10.67;81.74
64886;BME280;51514;52.206;5.114;2024-01-30T12:12:17;102707.59;;;10.46;82.51
64886;BME280;51514;52.206;5.114;2024-01-30T12:14:43;102703.59;;;10.39;82.60
64886;BME280;51514;52.206;5.114;2024-01-30T12:17:08;102699.88;;;10.53;82.72
64886;BME280;51514;52.206;5.114;2024-01-30T12:19:34;102701.25;;;10.35;83.12
64886;BME280;51514;52.206;5.114;2024-01-30T12:22:00;102703.06;;;10.47;83.19
64886;BME280;51514;52.206;5.114;2024-01-30T12:24:29;102709.31;;;10.47;83.66
64886;BME280;51514;52.206;5.114;2024-01-30T12:26:58;102705.84;;;10.45;83.94
64886;BME280;51514;52.206;5.114;2024-01-30T12:29:24;102710.91;;;10.50;84.61
64886;BME280;51514;52.206;5.114;2024-01-30T12:31:52;102699.38;;;10.48;84.22
64886;BME280;51514;52.206;5.114;2024-01-30T12:34:18;102712.28;;;10.55;84.60
64886;BME280;51514;52.206;5.114;2024-01-30T12:36:47;102705.03;;;10.69;84.10
64886;BME280;51514;52.206;5.114;2024-01-30T12:39:12;102715.56;;;10.72;84.12
64886;BME280;51514;52.206;5.114;2024-01-30T12:41:39;102718.25;;;10.72;84.51
64886;BME280;51514;52.206;5.114;2024-01-30T12:44:05;102711.50;;;10.66;85.02
64886;BME280;51514;52.206;5.114;2024-01-30T12:46:31;102722.13;;;10.56;85.48
64886;BME280;51514;52.206;5.114;2024-01-30T12:48:56;102722.25;;;10.42;86.46
64886;BME280;51514;52.206;5.114;2024-01-30T12:51:21;102719.38;;;10.33;87.58